Time;durP1;ratioP1;P1;durP2;ratioP2;P2;SDS_P1;SDS_P2;PMS_P1;PMS_P2;Temp;Humidity;BMP_temperature;BMP_pressure;BME280_temperature;BME280_humidity;BME280_pressure;Samples;Min_cycle;Max_cycle;Signal;HPM_P1;HPM_P2
2023/01/07 00:01:08;;;;;;;5.40;4.90;;;9.40;99.90;;;;;;4995284;28;20215;-65
2023/01/07 00:03:34;;;;;;;7.73;4.97;;;9.40;99.90;;;;;;5010233;28;20657;-64
2023/01/07 00:06:02;;;;;;;4.90;4.50;;;9.40;99.90;;;;;;4995069;28;20171;-65
2023/01/07 00:08:36;;;;;;;4.90;4.50;;;9.40;99.90;;;;;;4995144;28;20231;-64
2023/01/07 00:11:05;;;;;;;4.80;4.40;;;9.40;99.90;;;;;;4994777;28;20200;-65
2023/01/07 00:13:31;;;;;;;4.50;4.10;;;9.40;99.90;;;;;;4995182;28;20184;-65
2023/01/07 00:16:02;;;;;;;5.13;4.63;;;9.40;99.90;;;;;;4994658;28;20164;-66
2023/01/07 00:18:28;;;;;;;4.77;4.37;;;9.40;99.90;;;;;;4994703;28;20204;-64
2023/01/07 00:20:57;;;;;;;4.50;4.10;;;9.40;99.90;;;;;;4994634;28;20224;-65
2023/01/07 00:23:24;;;;;;;4.50;4.10;;;9.50;99.90;;;;;;4994969;28;20177;-64
2023/01/07 00:25:51;;;;;;;4.90;4.40;;;9.40;99.90;;;;;;4994609;28;20187;-65
2023/01/07 00:28:17;;;;;;;4.77;4.23;;;9.40;99.90;;;;;;4994514;28;20220;-65
2023/01/07 00:30:43;;;;;;;5.47;4.30;;;9.40;99.90;;;;;;4994550;28;20211;-64
2023/01/07 00:33:13;;;;;;;4.27;3.97;;;9.50;99.90;;;;;;4994411;28;20612;-64
2023/01/07 00:35:39;;;;;;;4.30;3.90;;;9.50;99.90;;;;;;4994410;28;20179;-65
2023/01/07 00:38:05;;;;;;;4.10;3.80;;;9.50;99.90;;;;;;4994510;28;20176;-64
2023/01/07 00:40:32;;;;;;;5.40;4.00;;;9.50;99.90;;;;;;4993014;28;20219;-64
2023/01/07 00:43:05;;;;;;;4.20;3.90;;;9.50;99.90;;;;;;4994176;28;20223;-65
2023/01/07 00:45:34;;;;;;;4.20;3.90;;;9.50;99.90;;;;;;4994655;28;20244;-64
2023/01/07 00:48:02;;;;;;;4.10;3.80;;;9.60;99.90;;;;;;4994164;28;20187;-64
2023/01/07 00:50:31;;;;;;;4.20;3.90;;;9.60;99.90;;;;;;4994055;28;20282;-64
2023/01/07 00:52:57;;;;;;;4.50;4.10;;;9.70;99.90;;;;;;4994516;28;20192;-64
2023/01/07 00:55:23;;;;;;;3.70;3.43;;;9.70;99.90;;;;;;5009162;28;20633;-64
2023/01/07 00:57:50;;;;;;;4.07;3.63;;;9.70;99.90;;;;;;4992453;28;20181;-64
2023/01/07 01:00:18;;;;;;;3.73;3.37;;;9.70;99.90;;;;;;4993991;28;20201;-65
2023/01/07 01:02:45;;;;;;;3.67;3.40;;;9.70;99.90;;;;;;4993910;28;20652;-64
2023/01/07 01:05:11;;;;;;;3.80;3.50;;;9.70;99.90;;;;;;4992905;28;20521;-64
2023/01/07 01:07:38;;;;;;;3.60;3.30;;;9.80;99.90;;;;;;4994387;28;20175;-64
2023/01/07 01:10:05;;;;;;;3.60;3.40;;;9.80;99.90;;;;;;4994117;28;20263;-64
2023/01/07 01:12:34;;;;;;;3.67;3.47;;;9.90;99.90;;;;;;4992682;28;20212;-64
2023/01/07 01:15:00;;;;;;;3.60;3.30;;;9.80;99.90;;;;;;4994337;28;20175;-64
2023/01/07 01:17:26;;;;;;;3.60;3.40;;;9.80;99.90;;;;;;4993946;28;20633;-64
2023/01/07 01:19:52;;;;;;;3.87;3.57;;;9.80;99.90;;;;;;4993998;28;20177;-65
2023/01/07 01:22:17;;;;;;;3.53;3.23;;;9.80;99.90;;;;;;4993941;28;20212;-64
2023/01/07 01:24:43;;;;;;;5.93;3.20;;;9.80;99.90;;;;;;4993848;28;20180;-64
2023/01/07 01:27:09;;;;;;;4.13;3.17;;;9.90;99.90;;;;;;5009647;28;20181;-66
2023/01/07 01:29:35;;;;;;;3.33;3.13;;;9.90;99.90;;;;;;4994138;28;20223;-66
2023/01/07 01:32:01;;;;;;;3.90;3.00;;;9.90;99.90;;;;;;4993731;28;20609;-64
2023/01/07 01:34:27;;;;;;;3.23;3.03;;;9.90;99.90;;;;;;4994202;28;20173;-67
2023/01/07 01:36:52;;;;;;;3.60;3.30;;;9.90;99.90;;;;;;4994052;28;20251;-67
2023/01/07 01:39:19;;;;;;;3.20;3.00;;;9.90;99.90;;;;;;4994027;28;20194;-66
2023/01/07 01:41:45;;;;;;;3.10;2.83;;;9.90;99.90;;;;;;4993856;28;20211;-64
2023/01/07 01:44:36;;;;;;;3.37;3.17;;;9.90;99.90;;;;;;4993826;28;20190;-68
2023/01/07 01:47:13;;;;;;;3.40;3.20;;;9.90;99.90;;;;;;4993646;28;20264;-68
2023/01/07 01:49:44;;;;;;;3.30;3.10;;;10.00;99.90;;;;;;4993988;28;20164;-68
2023/01/07 01:52:16;;;;;;;3.90;3.00;;;10.00;99.90;;;;;;4992428;28;20594;-68
2023/01/07 01:54:48;;;;;;;3.33;3.03;;;10.00;99.90;;;;;;4992449;28;20176;-68
2023/01/07 01:57:18;;;;;;;3.47;3.20;;;10.10;99.90;;;;;;4994056;28;20165;-68
2023/01/07 01:59:47;;;;;;;3.10;3.00;;;10.10;99.90;;;;;;4993448;28;20181;-68
2023/01/07 02:02:17;;;;;;;3.37;3.10;;;10.10;99.90;;;;;;5009044;28;20667;-68
2023/01/07 02:04:43;;;;;;;4.27;3.20;;;10.10;99.90;;;;;;4994279;28;20244;-68
2023/01/07 02:07:14;;;;;;;3.17;2.97;;;10.10;99.90;;;;;;5008873;28;20218;-68
2023/01/07 02:09:40;;;;;;;3.50;3.20;;;10.00;99.90;;;;;;4994553;28;20192;-68
2023/01/07 02:12:37;;;;;;;3.07;2.90;;;10.00;99.90;;;;;;4997084;28;20705;-68
2023/01/07 02:15:15;;;;;;;2.90;2.80;;;10.00;99.90;;;;;;4944690;28;20199;-68
2023/01/07 02:17:43;;;;;;;3.47;3.27;;;10.00;99.90;;;;;;4997422;28;20240;-68
2023/01/07 02:20:20;;;;;;;2.93;2.80;;;10.00;99.90;;;;;;5012163;28;20625;-68
2023/01/07 02:22:55;;;;;;;3.37;3.10;;;10.00;99.90;;;;;;4997380;28;20175;-68
2023/01/07 02:25:42;;;;;;;3.10;2.90;;;10.00;99.90;;;;;;4997968;28;20496;-68
2023/01/07 02:28:10;;;;;;;2.95;2.75;;;10.10;99.90;;;;;;4997430;28;20244;-68
2023/01/07 02:31:08;;;;;;;3.40;3.17;;;10.10;99.90;;;;;;5011805;28;20672;-68
2023/01/07 02:34:15;;;;;;;3.23;3.03;;;10.10;99.90;;;;;;4983906;28;20276;-68
2023/01/07 02:36:44;;;;;;;2.90;2.80;;;10.20;99.90;;;;;;4976941;28;20184;-68
2023/01/07 02:39:34;;;;;;;3.40;3.10;;;10.20;99.90;;;;;;4996791;28;20172;-68
2023/01/07 02:42:12;;;;;;;3.33;2.97;;;10.20;99.90;;;;;;4995455;28;20204;-68
2023/01/07 02:44:57;;;;;;;3.45;3.15;;;10.20;99.90;;;;;;4995420;28;20203;-68
2023/01/07 02:47:31;;;;;;;3.13;2.97;;;10.20;99.90;;;;;;4996559;28;20212;-69
2023/01/07 02:49:56;;;;;;;3.40;2.97;;;10.20;99.90;;;;;;4995359;28;20180;-68
2023/01/07 02:52:29;;;;;;;3.00;2.90;;;10.30;99.90;;;;;;4996615;28;20197;-68
2023/01/07 02:55:09;;;;;;;3.27;2.97;;;10.30;99.90;;;;;;5011491;28;20172;-68
2023/01/07 02:58:02;;;;;;;3.10;2.90;;;10.30;99.90;;;;;;4996814;28;20295;-68
2023/01/07 03:00:28;;;;;;;2.93;2.83;;;10.20;99.90;;;;;;4996463;28;20200;-68
2023/01/07 03:03:14;;;;;;;3.17;2.97;;;10.20;99.90;;;;;;5011372;28;20706;-68
2023/01/07 03:05:51;;;;;;;3.80;3.50;;;10.20;99.90;;;;;;4996582;28;20164;-68
2023/01/07 03:08:48;;;;;;;3.00;2.90;;;10.20;99.90;;;;;;4996236;28;20525;-68
2023/01/07 03:11:15;;;;;;;3.30;3.10;;;10.20;99.90;;;;;;4996223;28;20255;-68
2023/01/07 03:13:48;;;;;;;3.30;3.10;;;10.20;99.90;;;;;;4996515;28;20679;-68
2023/01/07 03:16:24;;;;;;;3.57;3.37;;;10.30;99.90;;;;;;4996183;28;20617;-68
2023/01/07 03:19:05;;;;;;;3.30;3.10;;;10.30;99.90;;;;;;5011250;28;20187;-68
2023/01/07 03:21:33;;;;;;;6.87;3.00;;;10.30;99.90;;;;;;4995704;28;20204;-68
2023/01/07 03:24:00;;;;;;;3.27;3.07;;;10.30;99.90;;;;;;4995980;28;20176;-68
2023/01/07 03:26:31;;;;;;;4.60;3.37;;;10.30;99.90;;;;;;4995899;28;20231;-68
2023/01/07 03:29:00;;;;;;;2.97;2.83;;;10.30;99.90;;;;;;4994710;28;20540;-68
2023/01/07 03:31:27;;;;;;;3.30;3.10;;;10.30;99.90;;;;;;4995541;28;20696;-68
2023/01/07 03:34:07;;;;;;;3.20;3.00;;;10.30;99.90;;;;;;4995836;28;20259;-68
2023/01/07 03:36:39;;;;;;;3.50;3.20;;;10.30;99.90;;;;;;4995765;28;20169;-68
2023/01/07 03:39:06;;;;;;;3.30;3.10;;;10.20;99.90;;;;;;4994409;28;20177;-68
2023/01/07 03:44:16;;;;;;;3.10;2.90;;;10.20;99.90;;;;;;4995764;28;20615;-68
2023/01/07 03:46:43;;;;;;;3.83;3.40;;;10.20;99.90;;;;;;4995359;28;20184;-68
2023/01/07 03:49:09;;;;;;;3.20;3.00;;;10.30;99.90;;;;;;4995656;28;20176;-68
2023/01/07 03:51:34;;;;;;;3.10;2.90;;;10.20;99.90;;;;;;4994117;28;20267;-68
2023/01/07 03:54:00;;;;;;;3.33;3.13;;;10.20;99.90;;;;;;4995505;28;20180;-68
2023/01/07 03:56:26;;;;;;;3.47;3.27;;;10.20;99.90;;;;;;5010229;28;20208;-68
2023/01/07 03:58:51;;;;;;;3.40;3.20;;;10.20;99.90;;;;;;4995412;28;20196;-68
2023/01/07 04:01:17;;;;;;;3.93;3.40;;;10.10;99.90;;;;;;4995166;28;20216;-68
2023/01/07 04:03:43;;;;;;;4.87;3.30;;;10.10;99.90;;;;;;4995069;28;20260;-68
2023/01/07 04:06:09;;;;;;;3.70;3.40;;;10.10;99.90;;;;;;4995226;28;20263;-68
2023/01/07 04:08:36;;;;;;;3.30;3.10;;;10.10;99.90;;;;;;4995286;28;20198;-68
2023/01/07 04:11:02;;;;;;;3.90;3.50;;;10.10;99.90;;;;;;4994101;28;20295;-68
2023/01/07 04:13:28;;;;;;;4.00;3.60;;;10.10;99.90;;;;;;4995811;28;20181;-68
2023/01/07 04:15:53;;;;;;;3.55;3.25;;;10.10;99.90;;;;;;5010661;28;20196;-68
2023/01/07 04:18:19;;;;;;;3.57;3.30;;;10.20;99.90;;;;;;5010698;28;20188;-68
2023/01/07 04:20:48;;;;;;;3.87;3.37;;;10.20;99.90;;;;;;5010805;28;20621;-68
2023/01/07 04:23:15;;;;;;;3.35;3.15;;;10.20;99.90;;;;;;4997787;28;20184;-68
2023/01/07 04:25:41;;;;;;;3.50;3.30;;;10.20;99.90;;;;;;4999041;28;20239;-68
2023/01/07 04:28:07;;;;;;;3.63;3.30;;;10.10;99.90;;;;;;4999023;28;20172;-68
2023/01/07 04:30:34;;;;;;;3.80;3.50;;;10.10;99.90;;;;;;5012341;28;20212;-68
2023/01/07 04:33:00;;;;;;;3.80;3.53;;;10.00;99.90;;;;;;5009984;28;20185;-68
2023/01/07 04:35:25;;;;;;;3.53;3.30;;;10.00;99.90;;;;;;4993997;28;20234;-68
2023/01/07 04:37:51;;;;;;;3.70;3.40;;;10.00;99.90;;;;;;5010158;28;20215;-68
2023/01/07 04:40:17;;;;;;;3.10;2.90;;;10.00;99.90;;;;;;5010418;28;20295;-68
2023/01/07 04:42:42;;;;;;;3.80;3.50;;;10.00;99.90;;;;;;4994942;28;20722;-68
2023/01/07 04:45:08;;;;;;;3.60;3.40;;;10.00;99.90;;;;;;5010248;28;20557;-64
2023/01/07 04:47:34;;;;;;;3.33;3.13;;;10.00;99.90;;;;;;4994685;28;20255;-64
2023/01/07 04:50:00;;;;;;;5.20;3.60;;;10.00;99.90;;;;;;4994490;28;20211;-64
2023/01/07 04:52:26;;;;;;;3.20;3.00;;;10.00;99.90;;;;;;4994411;28;20673;-64
2023/01/07 04:54:51;;;;;;;3.83;3.47;;;10.10;99.90;;;;;;4994397;28;20176;-64
2023/01/07 04:57:17;;;;;;;3.77;3.50;;;10.10;99.90;;;;;;4994816;28;20176;-64
2023/01/07 04:59:43;;;;;;;3.70;3.47;;;10.10;99.90;;;;;;4994219;28;20192;-68
2023/01/07 05:02:08;;;;;;;3.80;3.57;;;10.10;99.90;;;;;;4994494;28;20192;-68
2023/01/07 05:04:35;;;;;;;4.00;3.70;;;10.10;99.90;;;;;;4994705;28;20211;-68
2023/01/07 05:07:01;;;;;;;3.60;3.35;;;10.10;99.90;;;;;;4993366;28;20176;-68
2023/01/07 05:09:27;;;;;;;4.47;3.60;;;10.20;99.90;;;;;;4992893;28;20184;-68
2023/01/07 05:11:52;;;;;;;5.70;3.30;;;10.20;99.90;;;;;;4994128;28;20303;-68
2023/01/07 05:14:18;;;;;;;3.65;3.40;;;10.20;99.90;;;;;;4994787;28;20259;-68
2023/01/07 05:16:44;;;;;;;3.83;3.55;;;10.20;99.90;;;;;;4994347;28;20234;-68
2023/01/07 05:19:10;;;;;;;3.40;3.20;;;10.20;99.90;;;;;;4994647;28;20228;-68
2023/01/07 05:21:36;;;;;;;3.80;3.50;;;10.10;99.90;;;;;;4994135;28;20672;-68
2023/01/07 05:24:02;;;;;;;3.67;3.40;;;10.10;99.90;;;;;;4994076;28;20181;-68
2023/01/07 05:26:28;;;;;;;4.27;3.40;;;10.10;99.90;;;;;;4993964;28;20184;-68
2023/01/07 05:28:54;;;;;;;3.40;3.20;;;10.10;99.90;;;;;;4994183;28;20180;-68
2023/01/07 05:31:20;;;;;;;3.90;3.40;;;10.10;99.90;;;;;;4993955;28;20216;-68
2023/01/07 05:33:45;;;;;;;3.90;3.60;;;10.00;99.90;;;;;;4993977;28;20183;-68
2023/01/07 05:36:11;;;;;;;3.55;3.22;;;10.00;99.90;;;;;;4992983;28;20180;-68
2023/01/07 05:38:37;;;;;;;3.83;3.53;;;9.90;99.90;;;;;;4994588;28;20188;-68
2023/01/07 05:41:03;;;;;;;4.00;3.70;;;10.00;99.90;;;;;;4994006;28;20201;-68
2023/01/07 05:43:30;;;;;;;3.20;3.00;;;9.90;99.90;;;;;;4994181;28;20263;-68
2023/01/07 05:45:56;;;;;;;3.90;3.60;;;9.90;99.90;;;;;;4997764;28;20195;-68
2023/01/07 05:48:22;;;;;;;3.95;3.20;;;9.80;99.90;;;;;;5012512;28;20191;-68
2023/01/07 05:50:48;;;;;;;3.67;3.37;;;9.80;99.90;;;;;;4996289;28;20581;-68
2023/01/07 05:53:13;;;;;;;3.73;3.43;;;9.80;99.90;;;;;;4998162;28;20173;-68
2023/01/07 05:55:39;;;;;;;3.97;3.67;;;9.80;99.90;;;;;;4998085;28;20176;-68
2023/01/07 05:58:06;;;;;;;3.50;3.20;;;9.80;99.90;;;;;;5013150;28;20271;-68
2023/01/07 06:00:32;;;;;;;3.63;3.43;;;9.70;99.90;;;;;;4996658;28;20691;-68
2023/01/07 06:02:58;;;;;;;3.77;3.57;;;9.70;99.90;;;;;;4997632;28;20541;-68
2023/01/07 06:05:24;;;;;;;3.47;3.27;;;9.70;99.90;;;;;;4996575;28;20177;-68
2023/01/07 06:07:49;;;;;;;3.67;3.42;;;9.70;99.90;;;;;;4997823;28;20173;-68
2023/01/07 06:10:15;;;;;;;3.70;3.40;;;9.70;99.90;;;;;;4997759;28;20203;-68
2023/01/07 06:12:41;;;;;;;3.90;3.60;;;9.70;99.90;;;;;;4998005;28;20573;-68
2023/01/07 06:15:07;;;;;;;3.80;3.60;;;9.70;99.90;;;;;;4997795;28;20176;-68
2023/01/07 06:17:33;;;;;;;3.40;3.10;;;9.70;99.90;;;;;;4997548;28;20181;-68
2023/01/07 06:19:59;;;;;;;3.33;3.13;;;9.70;99.90;;;;;;4997692;28;20177;-68
2023/01/07 06:22:25;;;;;;;3.53;3.30;;;9.70;99.90;;;;;;4997839;28;20202;-68
2023/01/07 06:24:50;;;;;;;3.60;3.40;;;9.60;99.90;;;;;;5012475;28;20653;-68
2023/01/07 06:27:16;;;;;;;4.07;3.67;;;9.60;99.90;;;;;;4997145;28;20625;-67
2023/01/07 06:29:42;;;;;;;3.60;3.40;;;9.60;99.90;;;;;;4995896;28;20184;-68
2023/01/07 06:32:08;;;;;;;3.70;3.43;;;9.60;99.90;;;;;;4995894;28;20220;-68
2023/01/07 06:34:34;;;;;;;3.60;3.30;;;9.60;99.90;;;;;;4996141;28;20258;-68
2023/01/07 06:36:59;;;;;;;7.80;3.57;;;9.60;99.90;;;;;;4997388;28;20629;-68
2023/01/07 06:39:25;;;;;;;3.40;3.20;;;9.70;99.90;;;;;;4997843;28;20180;-68
2023/01/07 06:41:51;;;;;;;3.45;3.20;;;9.70;99.90;;;;;;4997335;28;20204;-68
2023/01/07 06:44:16;;;;;;;3.67;3.37;;;9.80;99.90;;;;;;4997095;28;20192;-68
2023/01/07 06:46:42;;;;;;;4.10;3.47;;;9.80;99.90;;;;;;4997074;28;20184;-68
2023/01/07 06:49:08;;;;;;;3.58;3.28;;;9.80;99.90;;;;;;4997650;28;20185;-68
2023/01/07 06:51:34;;;;;;;3.60;3.30;;;9.80;99.90;;;;;;4995547;28;20712;-68
2023/01/07 06:54:00;;;;;;;3.40;3.20;;;9.80;99.90;;;;;;4997070;28;20180;-68
2023/01/07 06:56:25;;;;;;;3.57;3.27;;;9.90;99.90;;;;;;4996454;28;20551;-68
2023/01/07 06:58:51;;;;;;;3.67;3.47;;;9.90;99.90;;;;;;4997138;28;20192;-68
2023/01/07 07:01:18;;;;;;;3.67;3.38;;;9.90;99.90;;;;;;4996712;28;20204;-68
2023/01/07 07:03:44;;;;;;;3.63;3.33;;;9.90;99.90;;;;;;4996546;28;20642;-68
2023/01/07 07:06:10;;;;;;;3.60;3.30;;;9.90;99.90;;;;;;4997063;28;20187;-68
2023/01/07 07:08:36;;;;;;;5.63;3.40;;;9.90;99.90;;;;;;4996474;28;20645;-68
2023/01/07 07:11:01;;;;;;;4.63;3.20;;;9.90;99.90;;;;;;4996534;28;20626;-68
2023/01/07 07:13:27;;;;;;;3.25;3.05;;;9.90;99.90;;;;;;4997459;28;20625;-68
2023/01/07 07:15:53;;;;;;;4.22;3.47;;;9.90;99.90;;;;;;5011535;28;20207;-68
2023/01/07 07:18:19;;;;;;;3.40;3.20;;;9.90;99.90;;;;;;4996388;28;20173;-68
2023/01/07 07:20:46;;;;;;;3.50;3.30;;;9.90;99.90;;;;;;4996330;28;20254;-68
2023/01/07 07:23:11;;;;;;;3.80;3.50;;;9.90;99.90;;;;;;4996319;28;20637;-68
2023/01/07 07:25:37;;;;;;;3.53;3.23;;;9.90;99.90;;;;;;4996732;28;20192;-68
2023/01/07 07:28:04;;;;;;;3.40;3.20;;;10.00;99.90;;;;;;4996604;28;20195;-68
2023/01/07 07:30:29;;;;;;;3.60;3.00;;;10.00;99.90;;;;;;4996423;28;20243;-68
2023/01/07 07:32:55;;;;;;;3.50;3.30;;;10.00;99.90;;;;;;4996416;28;20207;-68
2023/01/07 07:35:21;;;;;;;4.70;3.23;;;10.00;99.90;;;;;;4996337;28;20263;-68
2023/01/07 07:37:47;;;;;;;3.13;2.90;;;10.00;99.90;;;;;;4995291;28;20720;-68
2023/01/07 07:40:12;;;;;;;3.28;3.08;;;10.00;99.90;;;;;;5011202;28;20196;-68
2023/01/07 07:42:38;;;;;;;3.17;2.97;;;10.00;99.90;;;;;;4996185;28;20664;-68
2023/01/07 07:45:08;;;;;;;4.53;3.10;;;10.00;99.90;;;;;;4996560;28;20537;-68
2023/01/07 07:47:34;;;;;;;3.20;2.90;;;10.00;99.90;;;;;;4995299;28;20239;-67
2023/01/07 07:50:00;;;;;;;3.00;2.80;;;9.90;99.90;;;;;;4995830;28;20176;-68
2023/01/07 07:52:26;;;;;;;3.40;3.20;;;9.90;99.90;;;;;;4996112;28;20200;-68
2023/01/07 07:54:51;;;;;;;3.30;3.10;;;9.90;99.90;;;;;;4994976;28;20531;-68
2023/01/07 07:57:17;;;;;;;3.20;3.00;;;10.00;99.90;;;;;;4995828;28;20188;-68
2023/01/07 07:59:43;;;;;;;5.20;3.10;;;10.00;99.90;;;;;;4995799;28;20172;-68
2023/01/07 08:02:13;;;;;;;3.10;2.90;;;10.00;99.90;;;;;;4995633;28;20212;-68
2023/01/07 08:04:39;;;;;;;3.53;3.00;;;10.00;99.90;;;;;;4995634;28;20208;-68
2023/01/07 08:07:05;;;;;;;3.30;3.00;;;10.00;99.90;;;;;;4995214;28;20216;-68
2023/01/07 08:09:30;;;;;;;3.05;2.85;;;10.00;99.90;;;;;;4995328;28;20180;-68
2023/01/07 08:11:56;;;;;;;2.75;2.55;;;10.00;99.90;;;;;;4995553;28;20254;-68
2023/01/07 08:14:22;;;;;;;3.33;3.13;;;10.00;99.90;;;;;;4995638;28;20296;-67
2023/01/07 08:16:48;;;;;;;3.10;2.90;;;10.00;99.90;;;;;;4995304;28;20183;-66
2023/01/07 08:19:14;;;;;;;3.20;3.00;;;10.00;99.90;;;;;;5010675;28;20176;-66
2023/01/07 08:21:40;;;;;;;3.13;2.93;;;10.00;99.90;;;;;;5010300;28;20204;-66
2023/01/07 08:24:06;;;;;;;3.23;3.03;;;10.00;99.90;;;;;;5010184;28;20192;-66
2023/01/07 08:26:31;;;;;;;3.13;2.93;;;10.00;99.90;;;;;;4995229;28;20223;-67
2023/01/07 08:28:57;;;;;;;4.33;3.00;;;10.00;99.90;;;;;;4994607;28;20192;-66
2023/01/07 08:31:23;;;;;;;3.00;2.80;;;10.00;99.90;;;;;;4994827;28;20216;-67
2023/01/07 08:33:49;;;;;;;3.00;2.80;;;10.00;99.90;;;;;;4994738;28;20177;-67
2023/01/07 08:36:14;;;;;;;3.10;2.90;;;10.00;99.90;;;;;;4994333;28;20578;-68
2023/01/07 08:38:40;;;;;;;3.20;3.00;;;10.00;99.90;;;;;;5010619;28;20247;-69
2023/01/07 08:41:06;;;;;;;3.00;2.90;;;9.90;99.90;;;;;;4994664;28;20201;-68
2023/01/07 08:43:32;;;;;;;2.85;2.75;;;9.90;99.90;;;;;;5009960;28;20221;-68
2023/01/07 08:45:58;;;;;;;2.90;2.80;;;9.90;99.90;;;;;;4996174;28;20230;-65
2023/01/07 08:48:24;;;;;;;3.20;3.00;;;9.90;99.90;;;;;;4994034;28;20184;-66
2023/01/07 08:50:52;;;;;;;2.93;2.60;;;9.90;99.90;;;;;;5010720;28;20216;-64
2023/01/07 08:53:22;;;;;;;3.10;2.90;;;10.00;99.90;;;;;;4994870;28;20173;-67
2023/01/07 08:55:49;;;;;;;3.20;2.90;;;10.00;99.90;;;;;;4996381;28;20172;-62
2023/01/07 08:58:15;;;;;;;3.33;3.07;;;10.00;99.90;;;;;;4994235;28;20188;-63
2023/01/07 09:00:41;;;;;;;3.20;3.00;;;10.00;99.90;;;;;;4994292;28;20204;-63
2023/01/07 09:03:08;;;;;;;3.13;2.93;;;10.00;99.90;;;;;;5011647;28;20554;-66
2023/01/07 09:05:34;;;;;;;3.70;3.00;;;10.00;99.90;;;;;;4995491;28;20180;-69
2023/01/07 09:08:02;;;;;;;3.00;2.80;;;10.00;99.90;;;;;;4994485;28;20168;-66
2023/01/07 09:10:28;;;;;;;3.28;3.08;;;10.00;99.90;;;;;;4994808;28;20201;-65
2023/01/07 09:12:54;;;;;;;2.93;2.83;;;10.00;99.90;;;;;;5009090;28;20184;-65
2023/01/07 09:15:20;;;;;;;2.77;2.67;;;10.00;99.90;;;;;;4995060;28;20191;-67
2023/01/07 09:17:46;;;;;;;3.05;2.85;;;10.00;99.90;;;;;;4993334;28;20179;-68
2023/01/07 09:20:12;;;;;;;2.97;2.88;;;10.00;99.90;;;;;;4996118;28;20204;-68
2023/01/07 09:22:38;;;;;;;3.17;2.97;;;10.00;99.90;;;;;;4998598;28;20180;-65
2023/01/07 09:25:04;;;;;;;3.40;3.00;;;10.00;99.90;;;;;;4998932;28;20161;-65
2023/01/07 09:27:30;;;;;;;3.00;2.80;;;10.00;99.90;;;;;;4998853;28;20179;-65
2023/01/07 09:29:57;;;;;;;3.37;3.03;;;10.00;99.90;;;;;;4998539;28;20177;-65
2023/01/07 09:32:27;;;;;;;3.17;2.97;;;10.00;99.90;;;;;;4998305;28;20192;-65
2023/01/07 09:34:54;;;;;;;3.00;2.80;;;10.00;99.90;;;;;;4996807;28;20183;-65
2023/01/07 09:37:20;;;;;;;6.20;3.35;;;10.00;99.90;;;;;;4996862;28;20275;-65
2023/01/07 09:39:45;;;;;;;3.33;3.00;;;10.00;99.90;;;;;;4997926;28;20240;-66
2023/01/07 09:42:24;;;;;;;3.30;3.00;;;10.00;99.90;;;;;;4998049;28;20539;-65
2023/01/07 09:45:17;;;;;;;3.10;2.90;;;10.00;99.90;;;;;;4998246;28;20172;-65
2023/01/07 09:47:46;;;;;;;3.20;3.00;;;10.00;99.90;;;;;;4997793;28;20173;-65
2023/01/07 09:50:16;;;;;;;3.40;3.10;;;10.00;99.90;;;;;;5013327;28;20568;-65
2023/01/07 09:52:46;;;;;;;3.55;3.28;;;10.10;99.90;;;;;;4997825;28;20204;-65
2023/01/07 09:55:17;;;;;;;3.30;3.10;;;10.00;99.90;;;;;;4998274;28;20204;-65
2023/01/07 09:57:42;;;;;;;3.73;3.47;;;10.00;99.90;;;;;;4997824;28;20571;-65
2023/01/07 10:00:18;;;;;;;3.80;3.42;;;10.00;99.90;;;;;;4997783;28;20251;-65
2023/01/07 10:02:55;;;;;;;3.47;3.27;;;10.10;99.90;;;;;;4998522;28;20176;-65
2023/01/07 10:05:30;;;;;;;4.20;3.90;;;10.10;99.90;;;;;;4998067;28;20171;-65
2023/01/07 10:08:04;;;;;;;3.77;3.47;;;10.10;99.90;;;;;;4997495;28;20176;-65
2023/01/07 10:10:39;;;;;;;4.33;3.90;;;10.10;99.90;;;;;;4997290;28;20243;-65
2023/01/07 10:13:15;;;;;;;4.13;3.83;;;10.10;99.90;;;;;;4997562;28;20164;-65
2023/01/07 10:15:58;;;;;;;4.27;3.87;;;10.10;99.90;;;;;;4997718;28;20165;-65
2023/01/07 10:18:45;;;;;;;4.35;3.80;;;10.20;99.90;;;;;;4997255;28;20160;-65
2023/01/07 10:21:44;;;;;;;4.65;4.18;;;10.20;99.90;;;;;;4997934;28;20200;-65
2023/01/07 10:24:28;;;;;;;4.57;4.18;;;10.20;99.90;;;;;;4987733;28;20215;-65
2023/01/07 10:27:02;;;;;;;6.57;4.57;;;10.30;99.90;;;;;;4998582;28;20183;-68
2023/01/07 10:29:33;;;;;;;5.03;4.10;;;10.30;99.90;;;;;;5000037;28;20161;-68
2023/01/07 10:32:06;;;;;;;5.80;4.25;;;10.40;99.90;;;;;;4996770;28;20212;-63
2023/01/07 10:34:40;;;;;;;5.40;4.63;;;10.40;99.90;;;;;;4999022;28;20176;-63
2023/01/07 10:37:13;;;;;;;5.20;4.20;;;10.50;99.90;;;;;;4998706;28;20621;-63
2023/01/07 10:40:06;;;;;;;4.90;4.40;;;10.60;99.90;;;;;;4997462;28;20520;-63
2023/01/07 10:42:59;;;;;;;5.05;4.32;;;10.70;99.90;;;;;;5011897;28;20193;-63
2023/01/07 10:45:37;;;;;;;4.97;4.40;;;10.80;99.90;;;;;;4970835;28;20207;-63
2023/01/07 10:48:24;;;;;;;4.47;4.07;;;10.80;99.90;;;;;;4996611;28;20203;-63
2023/01/07 10:50:56;;;;;;;4.90;4.30;;;10.90;99.90;;;;;;5011453;28;20200;-64
2023/01/07 10:53:28;;;;;;;4.80;4.40;;;11.00;99.90;;;;;;5011587;28;20184;-64
2023/01/07 10:56:05;;;;;;;5.10;3.85;;;11.20;99.90;;;;;;4996295;28;20176;-63
2023/01/07 10:58:40;;;;;;;4.72;3.80;;;11.10;99.90;;;;;;4996364;28;20177;-64
2023/01/07 11:01:07;;;;;;;4.30;3.90;;;11.20;99.90;;;;;;4996135;28;20215;-68
2023/01/07 11:03:33;;;;;;;3.75;3.50;;;11.20;99.90;;;;;;4996025;28;20583;-63
2023/01/07 11:06:04;;;;;;;4.10;3.50;;;11.20;99.90;;;;;;5011199;28;20235;-64
2023/01/07 11:08:41;;;;;;;4.07;3.78;;;11.20;99.90;;;;;;4994765;28;20176;-63
2023/01/07 11:11:17;;;;;;;4.65;3.97;;;11.20;99.90;;;;;;4995899;28;20204;-64
2023/01/07 11:13:58;;;;;;;4.78;3.60;;;11.20;99.90;;;;;;4995113;28;20538;-66
2023/01/07 11:16:34;;;;;;;3.42;3.15;;;11.10;99.90;;;;;;4997042;28;20176;-66
2023/01/07 11:19:05;;;;;;;3.42;3.13;;;11.20;99.90;;;;;;4996183;28;20156;-67
2023/01/07 11:21:41;;;;;;;3.35;3.03;;;11.30;99.90;;;;;;5011594;28;20643;-67
2023/01/07 11:24:28;;;;;;;3.40;3.20;;;11.40;99.90;;;;;;4996146;28;20157;-67
2023/01/07 11:27:15;;;;;;;3.35;3.05;;;11.50;99.90;;;;;;4996291;28;20180;-67
2023/01/07 11:29:55;;;;;;;3.80;2.92;;;11.50;99.90;;;;;;4996309;28;20244;-67
2023/01/07 11:32:28;;;;;;;2.90;2.70;;;11.60;99.90;;;;;;5011007;28;20544;-67
2023/01/07 11:35:03;;;;;;;2.83;2.63;;;11.70;99.90;;;;;;4994936;28;20694;-68
2023/01/07 11:37:35;;;;;;;3.13;2.92;;;11.90;99.90;;;;;;4996118;28;20179;-68
2023/01/07 11:40:23;;;;;;;3.45;2.80;;;11.90;99.90;;;;;;4994791;28;20165;-67
2023/01/07 11:42:52;;;;;;;3.13;2.80;;;12.00;99.90;;;;;;4995097;28;20291;-68
2023/01/07 11:45:55;;;;;;;3.05;2.85;;;12.00;99.90;;;;;;5011106;28;20186;-67
2023/01/07 11:48:32;;;;;;;3.40;3.20;;;11.90;99.90;;;;;;4995253;28;20164;-67
2023/01/07 11:51:09;;;;;;;3.00;2.80;;;12.00;99.90;;;;;;4995405;28;20277;-67
2023/01/07 11:53:48;;;;;;;3.20;2.90;;;11.90;99.90;;;;;;4995403;28;20243;-67
2023/01/07 11:56:27;;;;;;;2.72;2.63;;;11.70;99.90;;;;;;4995596;28;20176;-67
2023/01/07 11:59:11;;;;;;;2.90;2.70;;;11.50;99.90;;;;;;4995867;28;20179;-66
2023/01/07 12:01:48;;;;;;;2.90;2.60;;;11.70;99.90;;;;;;4995658;28;20212;-67
2023/01/07 12:04:39;;;;;;;3.05;2.85;;;11.80;99.90;;;;;;5010618;28;20180;-67
2023/01/07 12:07:11;;;;;;;3.30;3.00;;;11.80;99.90;;;;;;4994302;28;20180;-67
2023/01/07 12:09:40;;;;;;;3.00;2.80;;;11.80;99.90;;;;;;4994260;28;20180;-67
2023/01/07 12:12:30;;;;;;;2.92;2.72;;;11.70;99.90;;;;;;4995584;28;20205;-70
2023/01/07 12:15:17;;;;;;;2.90;2.70;;;11.70;99.90;;;;;;4995803;28;20184;-69
2023/01/07 12:17:46;;;;;;;3.10;2.88;;;11.70;99.90;;;;;;4994570;28;20219;-70
2023/01/07 12:20:34;;;;;;;2.75;2.55;;;11.70;99.90;;;;;;5011009;28;20208;-72
2023/01/07 12:23:29;;;;;;;2.92;2.72;;;11.90;99.90;;;;;;4995833;28;20203;-69
2023/01/07 12:26:07;;;;;;;2.63;2.53;;;11.80;99.90;;;;;;4994901;28;20191;-70
2023/01/07 12:28:58;;;;;;;7.18;5.45;;;11.80;99.90;;;;;;5010987;28;20280;-69
2023/01/07 12:31:53;;;;;;;5.20;4.47;;;11.80;99.90;;;;;;5010481;28;20216;-70
2023/01/07 12:34:39;;;;;;;6.38;5.18;;;11.70;99.90;;;;;;4995640;28;20638;-68
2023/01/07 12:37:41;;;;;;;3.20;2.90;;;11.70;99.90;;;;;;4995023;28;20563;-65
2023/01/07 12:40:10;;;;;;;4.30;2.90;;;11.80;99.90;;;;;;4986226;28;20218;-64
2023/01/07 12:42:41;;;;;;;2.63;2.42;;;12.00;99.90;;;;;;4994632;28;20259;-64
2023/01/07 12:45:18;;;;;;;3.05;2.85;;;11.90;99.90;;;;;;4995187;28;20640;-65
2023/01/07 12:47:52;;;;;;;3.33;2.97;;;11.70;99.90;;;;;;4994569;28;20553;-65
2023/01/07 12:50:44;;;;;;;2.88;2.67;;;11.50;99.90;;;;;;4994743;28;20197;-65
2023/01/07 12:53:19;;;;;;;2.88;2.67;;;11.40;99.90;;;;;;4994243;28;20219;-65
2023/01/07 12:56:02;;;;;;;3.00;2.80;;;11.40;99.90;;;;;;4994508;28;20157;-64
2023/01/07 12:58:43;;;;;;;3.08;2.67;;;11.20;99.90;;;;;;4994464;28;20152;-65
2023/01/07 13:01:21;;;;;;;2.80;2.60;;;11.30;99.90;;;;;;4994397;28;20203;-64
2023/01/07 13:04:29;;;;;;;2.97;2.85;;;11.50;99.90;;;;;;4994166;28;20203;-67
2023/01/07 13:07:06;;;;;;;2.80;2.70;;;11.70;99.90;;;;;;4934466;29;20218;-66
2023/01/07 13:09:49;;;;;;;3.03;2.83;;;11.80;99.90;;;;;;4986586;28;20184;-65
2023/01/07 13:12:45;;;;;;;3.22;2.90;;;11.70;99.90;;;;;;4994547;28;20212;-65